createdAt,value
2019-03-08T00:01:00.127Z,58.04
2019-03-08T00:03:31.904Z,58.07
2019-03-08T00:06:03.602Z,57.93
2019-03-08T00:08:35.349Z,57.78
2019-03-08T00:11:07.225Z,57.62
2019-03-08T00:13:38.923Z,57.96
2019-03-08T00:16:10.528Z,57.98
2019-03-08T00:18:42.305Z,58.20
2019-03-08T00:21:14.181Z,58.12
2019-03-08T00:23:46.103Z,58.05
2019-03-08T00:26:17.693Z,58.17
2019-03-08T00:28:49.384Z,58.14
2019-03-08T00:31:20.978Z,58.46
2019-03-08T00:33:53.524Z,58.53
2019-03-08T00:36:25.102Z,58.79
2019-03-08T00:38:56.699Z,58.92
2019-03-08T00:41:28.298Z,59.09
2019-03-08T00:43:59.917Z,58.80
2019-03-08T00:46:31.789Z,58.81
2019-03-08T00:49:03.463Z,58.99
2019-03-08T00:51:35.057Z,58.96
2019-03-08T00:54:06.657Z,59.05
2019-03-08T00:56:39.690Z,59.09
2019-03-08T00:59:11.507Z,58.78
2019-03-08T01:01:43.254Z,58.82
2019-03-08T01:04:14.845Z,58.93
2019-03-08T01:06:46.512Z,58.87
2019-03-08T01:09:18.092Z,59.01
2019-03-08T01:11:49.663Z,59.06
2019-03-08T01:14:21.306Z,59.10
2019-03-08T01:16:52.943Z,59.00
2019-03-08T01:19:24.553Z,59.16
2019-03-08T01:21:56.489Z,59.19
2019-03-08T01:24:28.078Z,59.33
2019-03-08T01:26:59.662Z,59.16
2019-03-08T01:29:31.295Z,59.27
2019-03-08T01:32:02.876Z,59.23
2019-03-08T01:34:34.478Z,58.94
2019-03-08T01:37:06.145Z,58.77
2019-03-08T01:39:37.770Z,58.74
2019-03-08T01:42:09.363Z,58.53
2019-03-08T01:44:41.028Z,58.37
2019-03-08T01:47:12.973Z,58.51
2019-03-08T01:49:44.586Z,58.37
2019-03-08T01:52:16.295Z,58.16
2019-03-08T01:54:47.915Z,58.20
2019-03-08T01:57:19.771Z,58.09
2019-03-08T01:59:51.485Z,57.76
2019-03-08T02:02:23.149Z,57.87
2019-03-08T02:04:54.749Z,57.57
2019-03-08T02:07:26.346Z,57.52
2019-03-08T02:09:58.105Z,57.44
2019-03-08T02:12:29.757Z,57.38
2019-03-08T02:15:01.530Z,57.26
2019-03-08T02:17:33.401Z,57.36
2019-03-08T02:20:05.485Z,57.33
2019-03-08T02:22:37.083Z,57.07
2019-03-08T02:25:08.690Z,57.20
2019-03-08T02:27:40.426Z,57.35
2019-03-08T02:30:14.321Z,57.38
2019-03-08T02:32:46.371Z,57.33
2019-03-08T02:35:18.844Z,57.29
2019-03-08T02:37:50.414Z,57.48
2019-03-08T02:40:38.164Z,57.14
2019-03-08T02:43:11.685Z,57.32
2019-03-08T02:45:43.332Z,57.23
2019-03-08T02:48:15.375Z,56.76
2019-03-08T02:50:47.229Z,56.84
2019-03-08T02:53:19.157Z,56.62
2019-03-08T02:55:50.814Z,56.66
2019-03-08T02:58:23.469Z,56.66
2019-03-08T03:00:55.154Z,56.52
2019-03-08T03:03:26.830Z,56.71
2019-03-08T03:05:58.494Z,57.03
2019-03-08T03:08:31.143Z,57.04
2019-03-08T03:11:02.727Z,57.03
2019-03-08T03:13:34.373Z,56.88
2019-03-08T03:16:06.265Z,57.14
2019-03-08T03:18:37.918Z,57.08
2019-03-08T03:21:09.511Z,57.14
2019-03-08T03:23:41.089Z,57.32
2019-03-08T03:26:12.878Z,57.36
2019-03-08T03:28:44.626Z,57.36
2019-03-08T03:31:16.403Z,57.52
2019-03-08T03:33:48.071Z,57.60
2019-03-08T03:36:19.747Z,57.70
2019-03-08T03:38:51.358Z,57.97
2019-03-08T03:41:23.079Z,58.04
2019-03-08T03:43:54.663Z,58.09
2019-03-08T03:46:26.389Z,58.34
2019-03-08T03:48:58.042Z,58.23
2019-03-08T03:51:29.635Z,58.27
2019-03-08T03:54:01.258Z,58.27
2019-03-08T03:56:32.858Z,58.40
2019-03-08T03:59:04.447Z,58.31
2019-03-08T04:01:39.952Z,58.37
2019-03-08T04:04:11.611Z,58.23
2019-03-08T04:06:43.285Z,58.27
2019-03-08T04:09:15.062Z,58.20
2019-03-08T04:11:46.833Z,58.18
2019-03-08T04:14:18.418Z,58.08
2019-03-08T04:16:49.986Z,58.16
2019-03-08T04:19:21.584Z,58.16
2019-03-08T04:21:53.165Z,58.06
2019-03-08T04:24:24.757Z,58.19
2019-03-08T04:26:56.738Z,58.16
2019-03-08T04:29:28.320Z,58.13
2019-03-08T04:32:00.086Z,58.06
2019-03-08T04:34:31.761Z,58.22
2019-03-08T04:37:03.466Z,58.08
2019-03-08T04:39:35.396Z,58.16
2019-03-08T04:42:07.004Z,58.13
2019-03-08T04:44:38.587Z,58.13
2019-03-08T04:47:10.205Z,58.13
2019-03-08T04:49:41.855Z,58.25
2019-03-08T04:52:13.456Z,58.22
2019-03-08T04:54:45.341Z,58.41
2019-03-08T04:57:17.257Z,58.32
2019-03-08T04:59:49.182Z,58.37
2019-03-08T05:02:20.756Z,58.42
2019-03-08T05:04:53.318Z,58.60
2019-03-08T05:07:24.922Z,58.62
2019-03-08T05:09:56.507Z,58.65
2019-03-08T05:12:28.103Z,58.73
2019-03-08T05:14:59.973Z,58.86
2019-03-08T05:17:31.573Z,58.86
2019-03-08T05:20:04.237Z,59.01
2019-03-08T05:22:35.919Z,58.94
2019-03-08T05:25:07.569Z,58.90
2019-03-08T05:27:39.447Z,58.94
2019-03-08T05:30:11.767Z,58.93
2019-03-08T05:32:43.441Z,58.88
2019-03-08T05:35:16.192Z,58.80
2019-03-08T05:37:47.782Z,58.70
2019-03-08T05:40:19.372Z,58.64
2019-03-08T05:42:50.936Z,58.69
2019-03-08T05:45:22.521Z,58.51
2019-03-08T05:47:54.124Z,58.40
2019-03-08T05:50:26.025Z,58.52
2019-03-08T05:52:57.686Z,58.59
2019-03-08T05:55:29.364Z,58.49
2019-03-08T05:58:00.969Z,58.44
2019-03-08T06:00:35.051Z,58.30
2019-03-08T06:03:06.265Z,58.45
2019-03-08T06:05:37.910Z,58.24
2019-03-08T06:08:09.524Z,58.26
2019-03-08T06:10:41.121Z,58.11
2019-03-08T06:13:13.129Z,57.89
2019-03-08T06:15:44.907Z,57.75
2019-03-08T06:18:17.563Z,57.38
2019-03-08T06:20:49.158Z,57.22
2019-03-08T06:23:20.742Z,56.79
2019-03-08T06:25:52.366Z,56.84
2019-03-08T06:28:24.348Z,56.33
2019-03-08T06:30:56.248Z,55.64
2019-03-08T06:33:27.857Z,55.55
2019-03-08T06:35:59.529Z,55.21
2019-03-08T06:38:31.141Z,54.87
2019-03-08T06:41:02.730Z,54.61
2019-03-08T06:43:34.328Z,54.48
2019-03-08T06:46:06.003Z,54.20
2019-03-08T06:48:37.678Z,54.09
2019-03-08T06:51:09.280Z,54.05
2019-03-08T06:53:40.897Z,53.73
2019-03-08T06:56:12.488Z,53.59
2019-03-08T06:58:55.817Z,53.51
2019-03-08T07:01:32.145Z,53.23
2019-03-08T07:04:03.765Z,53.12
2019-03-08T07:06:35.669Z,52.92
2019-03-08T07:09:08.044Z,52.94
2019-03-08T07:11:40.209Z,52.60
2019-03-08T07:14:12.369Z,52.37
2019-03-08T07:16:44.244Z,52.10
2019-03-08T07:19:16.810Z,52.01
2019-03-08T07:22:10.443Z,51.91
2019-03-08T07:25:01.268Z,51.51
2019-03-08T07:27:57.391Z,51.24
2019-03-08T07:30:54.893Z,50.90
2019-03-08T07:33:28.259Z,50.82
2019-03-08T07:36:09.166Z,50.79
2019-03-08T07:39:05.544Z,50.70
2019-03-08T07:41:58.283Z,50.91
2019-03-08T07:44:48.870Z,50.41
2019-03-08T07:47:37.989Z,50.21
2019-03-08T07:50:22.900Z,50.21
2019-03-08T07:53:03.837Z,49.79
2019-03-08T07:55:50.743Z,49.54
2019-03-08T07:58:36.876Z,48.99
2019-03-08T08:01:19.317Z,48.61
2019-03-08T08:04:13.053Z,48.04
2019-03-08T08:06:50.187Z,48.20
2019-03-08T08:09:41.229Z,47.34
2019-03-08T08:12:36.411Z,47.22
2019-03-08T08:15:27.448Z,47.81
2019-03-08T08:18:05.047Z,47.03
2019-03-08T08:20:55.735Z,46.77
2019-03-08T08:23:37.418Z,46.69
2019-03-08T08:26:24.047Z,46.25
2019-03-08T08:29:14.460Z,46.53
2019-03-08T08:32:24.167Z,46.04
2019-03-08T08:35:05.601Z,45.86
2019-03-08T08:38:06.821Z,45.85
2019-03-08T08:41:00.673Z,46.18
2019-03-08T08:43:42.008Z,45.93
2019-03-08T08:46:32.770Z,45.71
2019-03-08T08:49:21.872Z,45.07
2019-03-08T08:52:11.241Z,44.59
2019-03-08T08:55:04.829Z,44.97
2019-03-08T08:57:57.215Z,45.01
2019-03-08T09:00:52.019Z,45.04
2019-03-08T09:03:39.704Z,44.91
2019-03-08T09:06:35.331Z,44.24
2019-03-08T09:09:29.711Z,44.73
2019-03-08T09:12:16.399Z,44.85
2019-03-08T09:15:04.083Z,44.68
2019-03-08T09:18:13.991Z,45.01
2019-03-08T09:21:03.498Z,44.35
2019-03-08T09:23:42.055Z,44.69
2019-03-08T09:26:40.787Z,44.64
2019-03-08T09:29:29.965Z,44.61
2019-03-08T09:32:20.559Z,44.27
2019-03-08T09:35:14.100Z,43.97
2019-03-08T09:38:07.867Z,44.23
2019-03-08T09:40:51.810Z,44.00
2019-03-08T09:43:37.131Z,44.38
2019-03-08T09:46:30.694Z,44.79
2019-03-08T09:49:20.531Z,44.51
2019-03-08T09:52:11.386Z,43.73
2019-03-08T09:54:55.143Z,43.76
2019-03-08T09:57:33.374Z,44.22
2019-03-08T10:00:24.286Z,44.11
2019-03-08T10:03:05.012Z,44.33
2019-03-08T10:05:56.914Z,43.65
2019-03-08T10:08:56.539Z,42.85
2019-03-08T10:11:52.901Z,42.89
2019-03-08T10:14:33.226Z,42.81
2019-03-08T10:17:23.740Z,42.03
2019-03-08T10:20:11.267Z,42.11
2019-03-08T10:23:05.176Z,42.48
2019-03-08T10:25:58.509Z,42.25
2019-03-08T10:28:49.792Z,42.34
2019-03-08T10:31:26.695Z,42.66
2019-03-08T10:34:15.880Z,41.98
2019-03-08T10:37:01.688Z,42.46
2019-03-08T10:39:41.833Z,42.50
2019-03-08T10:42:29.466Z,42.38
2019-03-08T10:45:20.105Z,43.54
2019-03-08T10:48:09.501Z,43.52
2019-03-08T10:51:01.429Z,43.86
2019-03-08T10:53:45.808Z,44.35
2019-03-08T10:56:28.719Z,44.74
2019-03-08T10:59:34.794Z,44.73
2019-03-08T11:02:43.565Z,44.86
2019-03-08T11:05:44.886Z,44.86
2019-03-08T11:08:34.296Z,45.08
2019-03-08T11:11:18.764Z,45.28
2019-03-08T11:14:01.050Z,44.72
2019-03-08T11:16:43.390Z,44.85
2019-03-08T11:19:53.576Z,44.85
2019-03-08T11:22:52.851Z,44.92
2019-03-08T11:25:44.201Z,44.70
2019-03-08T11:28:34.207Z,44.51
2019-03-08T11:31:24.714Z,44.35
2019-03-08T11:34:25.424Z,44.02
2019-03-08T11:37:14.853Z,43.94
2019-03-08T11:39:53.088Z,44.07
2019-03-08T11:42:46.745Z,43.68
2019-03-08T11:45:43.064Z,43.57
2019-03-08T11:48:25.303Z,43.18
2019-03-08T11:51:14.129Z,43.17
2019-03-08T11:54:13.760Z,43.41
2019-03-08T11:56:59.535Z,43.73
2019-03-08T12:00:00.324Z,43.53
2019-03-08T12:02:49.318Z,43.63
2019-03-08T12:05:38.547Z,43.26
2019-03-08T12:08:27.807Z,42.79
2019-03-08T12:11:29.159Z,42.26
2019-03-08T12:14:19.749Z,42.32
2019-03-08T12:17:10.071Z,42.72
2019-03-08T12:20:09.619Z,42.33
2019-03-08T12:22:58.766Z,42.81
2019-03-08T12:25:42.532Z,42.74
2019-03-08T12:28:31.729Z,43.10
2019-03-08T12:31:38.144Z,42.98
2019-03-08T12:34:27.363Z,43.83
2019-03-08T12:37:07.905Z,43.97
2019-03-08T12:40:01.477Z,43.98
2019-03-08T12:42:51.144Z,44.06
2019-03-08T12:45:35.411Z,44.44
2019-03-08T12:48:24.356Z,44.65
2019-03-08T12:51:04.667Z,48.32
2019-03-08T12:54:07.373Z,52.36
2019-03-08T12:57:03.767Z,59.52
2019-03-08T12:59:45.217Z,68.74
2019-03-08T13:02:42.044Z,69.47
2019-03-08T13:05:35.341Z,71.13
2019-03-08T13:08:42.100Z,69.26
2019-03-08T13:11:13.943Z,69.29
2019-03-08T13:13:45.538Z,68.58
2019-03-08T13:16:17.126Z,66.75
2019-03-08T13:18:48.702Z,65.80
2019-03-08T13:21:20.297Z,65.77
2019-03-08T13:23:52.881Z,63.64
2019-03-08T13:26:25.542Z,62.72
2019-03-08T13:28:57.211Z,61.47
2019-03-08T13:31:28.802Z,61.92
2019-03-08T13:34:00.454Z,61.81
2019-03-08T13:36:32.119Z,61.31
2019-03-08T13:39:05.080Z,60.34
2019-03-08T13:41:38.281Z,61.24
2019-03-08T13:44:09.889Z,60.74
2019-03-08T13:46:41.493Z,60.41
2019-03-08T13:49:13.167Z,61.06
2019-03-08T13:51:44.867Z,61.94
2019-03-08T13:54:16.787Z,65.61
2019-03-08T13:56:48.530Z,71.36
2019-03-08T13:59:20.147Z,75.10
2019-03-08T14:01:51.751Z,75.48
2019-03-08T14:04:23.426Z,75.87
2019-03-08T14:06:55.039Z,75.27
2019-03-08T14:09:26.658Z,75.65
2019-03-08T14:11:58.252Z,76.70
2019-03-08T14:14:30.137Z,74.71
2019-03-08T14:17:01.737Z,73.63
2019-03-08T14:19:33.331Z,71.92
2019-03-08T14:22:05.286Z,70.92
2019-03-08T14:24:36.933Z,68.28
2019-03-08T14:27:08.599Z,68.05
2019-03-08T14:29:40.986Z,67.66
2019-03-08T14:32:21.270Z,67.05
2019-03-08T14:34:53.754Z,65.78
2019-03-08T14:37:24.112Z,67.18
2019-03-08T14:39:55.783Z,65.61
2019-03-08T14:42:45.544Z,65.21
2019-03-08T14:45:24.060Z,65.11
2019-03-08T14:47:57.624Z,64.84
2019-03-08T14:50:31.889Z,64.64
2019-03-08T14:53:02.614Z,64.74
2019-03-08T14:55:34.556Z,63.28
2019-03-08T14:58:06.154Z,61.99
2019-03-08T15:00:38.063Z,61.00
2019-03-08T15:03:09.742Z,61.84
2019-03-08T15:05:41.414Z,61.71
2019-03-08T15:08:13.737Z,64.34
2019-03-08T15:10:47.110Z,65.27
2019-03-08T15:13:20.215Z,65.73
2019-03-08T15:15:52.681Z,66.32
2019-03-08T15:18:29.441Z,65.86
2019-03-08T15:21:00.136Z,65.39
2019-03-08T15:23:32.012Z,64.63
2019-03-08T15:26:03.630Z,64.40
2019-03-08T15:28:36.227Z,63.73
2019-03-08T15:31:09.649Z,62.92
2019-03-08T15:33:44.005Z,61.71
2019-03-08T15:36:16.297Z,62.16
2019-03-08T15:38:48.062Z,61.29
2019-03-08T15:41:25.028Z,61.03
2019-03-08T15:43:57.556Z,60.18
2019-03-08T15:46:29.523Z,60.06
2019-03-08T15:49:01.346Z,60.54
2019-03-08T15:51:33.179Z,61.12
2019-03-08T15:54:05.048Z,61.66
2019-03-08T15:56:37.252Z,60.48
2019-03-08T15:59:12.565Z,59.32
2019-03-08T16:01:44.249Z,58.66
2019-03-08T16:04:16.233Z,59.33
2019-03-08T16:06:48.035Z,58.97
2019-03-08T16:09:19.747Z,59.61
2019-03-08T16:11:51.401Z,60.46
2019-03-08T16:14:23.327Z,60.50
2019-03-08T16:16:55.237Z,60.83
2019-03-08T16:19:27.019Z,60.63
2019-03-08T16:21:58.619Z,60.98
2019-03-08T16:24:31.087Z,61.06
2019-03-08T16:27:03.902Z,61.26
2019-03-08T16:29:35.969Z,61.63
2019-03-08T16:32:26.694Z,60.97
2019-03-08T16:34:58.824Z,60.39
2019-03-08T16:38:01.310Z,59.54
2019-03-08T16:40:50.476Z,57.08
2019-03-08T16:43:45.783Z,55.64
2019-03-08T16:46:26.609Z,55.21
2019-03-08T16:49:03.542Z,54.91
2019-03-08T16:52:09.334Z,53.95
2019-03-08T16:54:55.093Z,53.62
2019-03-08T16:57:44.507Z,53.41
2019-03-08T17:00:41.203Z,53.20
2019-03-08T17:03:22.843Z,53.52
2019-03-08T17:06:12.052Z,53.85
2019-03-08T17:08:53.338Z,53.42
2019-03-08T17:11:46.999Z,53.80
2019-03-08T17:14:34.478Z,54.20
2019-03-08T17:17:16.122Z,53.83
2019-03-08T17:19:59.444Z,54.47
2019-03-08T17:22:56.408Z,54.57
2019-03-08T17:25:36.491Z,54.52
2019-03-08T17:28:25.686Z,54.81
2019-03-08T17:31:34.096Z,55.05
2019-03-08T17:34:23.440Z,54.88
2019-03-08T17:37:17.097Z,54.97
2019-03-08T17:40:10.357Z,55.35
2019-03-08T17:43:00.522Z,55.61
2019-03-08T17:45:51.616Z,56.07
2019-03-08T17:48:33.262Z,56.30
2019-03-08T17:51:24.281Z,56.57
2019-03-08T17:54:26.923Z,56.49
2019-03-08T17:57:16.057Z,56.69
2019-03-08T18:00:15.791Z,56.78
2019-03-08T18:03:09.498Z,57.06
2019-03-08T18:05:58.484Z,57.35
2019-03-08T18:08:52.062Z,57.62
2019-03-08T18:11:40.916Z,57.63
2019-03-08T18:14:49.780Z,58.10
2019-03-08T18:17:40.581Z,58.48
2019-03-08T18:20:32.601Z,58.95
2019-03-08T18:23:23.597Z,59.11
2019-03-08T18:26:13.612Z,59.29
2019-03-08T18:29:10.082Z,59.36
2019-03-08T18:32:06.858Z,59.71
2019-03-08T18:34:59.565Z,59.99
2019-03-08T18:37:41.937Z,59.78
2019-03-08T18:40:35.595Z,60.71
2019-03-08T18:43:35.370Z,61.18
2019-03-08T18:46:15.893Z,61.61
2019-03-08T18:49:06.481Z,61.61
2019-03-08T18:52:00.813Z,61.88
2019-03-08T18:54:55.306Z,62.00
2019-03-08T18:57:44.594Z,61.85
2019-03-08T19:00:41.294Z,61.88
2019-03-08T19:03:24.445Z,62.16
2019-03-08T19:06:03.735Z,62.08
2019-03-08T19:08:52.929Z,62.31
2019-03-08T19:11:43.858Z,62.65
2019-03-08T19:14:36.669Z,62.84
2019-03-08T19:17:23.903Z,63.37
2019-03-08T19:20:22.411Z,63.59
2019-03-08T19:23:16.292Z,64.07
2019-03-08T19:26:13.129Z,64.67
2019-03-08T19:29:07.166Z,64.58
2019-03-08T19:31:47.810Z,64.63
2019-03-08T19:34:39.131Z,64.69
2019-03-08T19:37:35.763Z,64.81
2019-03-08T19:40:14.108Z,64.90
2019-03-08T19:43:04.709Z,64.96
2019-03-08T19:46:01.340Z,64.84
2019-03-08T19:48:43.954Z,64.74
2019-03-08T19:51:33.137Z,64.60
2019-03-08T19:54:21.543Z,64.85
2019-03-08T19:57:30.933Z,64.61
2019-03-08T20:00:20.965Z,64.89
2019-03-08T20:03:09.863Z,64.93
2019-03-08T20:05:49.622Z,64.83
2019-03-08T20:08:49.207Z,64.95
2019-03-08T20:11:58.163Z,64.96
2019-03-08T20:14:46.689Z,65.14
2019-03-08T20:17:43.061Z,64.85
2019-03-08T20:20:32.794Z,64.97
2019-03-08T20:23:33.704Z,64.89
2019-03-08T20:26:24.509Z,64.85
2019-03-08T20:29:19.392Z,65.05
2019-03-08T20:32:05.466Z,65.05
2019-03-08T20:34:54.540Z,65.01
2019-03-08T20:37:33.286Z,65.12
2019-03-08T20:40:23.061Z,65.08
2019-03-08T20:43:20.317Z,65.36
2019-03-08T20:46:05.747Z,65.60
2019-03-08T20:48:37.427Z,65.96
2019-03-08T20:51:09.095Z,65.93
2019-03-08T20:53:44.226Z,66.47
2019-03-08T20:56:16.206Z,66.52
2019-03-08T20:58:47.921Z,66.49
2019-03-08T21:01:19.801Z,66.33
2019-03-08T21:03:51.480Z,66.20
2019-03-08T21:06:23.192Z,66.93
2019-03-08T21:08:55.932Z,67.36
2019-03-08T21:11:30.467Z,67.74
2019-03-08T21:14:02.735Z,68.19
2019-03-08T21:16:34.421Z,67.99
2019-03-08T21:19:06.027Z,68.12
2019-03-08T21:21:37.715Z,67.95
2019-03-08T21:24:09.584Z,68.04
2019-03-08T21:26:44.300Z,68.12
2019-03-08T21:29:16.060Z,68.17
2019-03-08T21:31:47.848Z,68.46
2019-03-08T21:34:19.542Z,68.43
2019-03-08T21:36:51.243Z,68.43
2019-03-08T21:39:27.159Z,68.12
2019-03-08T21:41:58.858Z,67.91
2019-03-08T21:44:30.565Z,68.17
2019-03-08T21:47:02.207Z,68.51
2019-03-08T21:49:33.879Z,68.70
2019-03-08T21:52:05.543Z,68.44
2019-03-08T21:54:37.231Z,68.25
2019-03-08T21:57:09.005Z,68.28
2019-03-08T21:59:40.673Z,68.32
2019-03-08T22:02:12.353Z,67.91
2019-03-08T22:04:47.688Z,67.84
2019-03-08T22:07:19.460Z,67.74
2019-03-08T22:10:10.017Z,67.78
2019-03-08T22:12:41.695Z,67.63
2019-03-08T22:15:13.900Z,67.81
2019-03-08T22:17:45.564Z,67.86
2019-03-08T22:20:17.149Z,67.76
2019-03-08T22:22:49.857Z,67.64
2019-03-08T22:25:22.546Z,67.78
2019-03-08T22:27:54.245Z,67.82
2019-03-08T22:30:25.856Z,67.94
2019-03-08T22:32:57.464Z,67.62
2019-03-08T22:35:29.087Z,67.71
2019-03-08T22:38:00.693Z,67.45
2019-03-08T22:40:32.367Z,67.27
2019-03-08T22:43:03.982Z,67.02
2019-03-08T22:45:35.573Z,67.09
2019-03-08T22:48:08.015Z,67.22
2019-03-08T22:50:40.684Z,66.73
2019-03-08T22:53:12.274Z,66.82
2019-03-08T22:55:45.428Z,66.80
2019-03-08T22:58:17.060Z,66.98
2019-03-08T23:01:12.930Z,67.08
2019-03-08T23:03:46.190Z,67.24
2019-03-08T23:06:18.124Z,67.16
2019-03-08T23:08:49.935Z,67.21
2019-03-08T23:11:21.531Z,67.12
2019-03-08T23:13:53.124Z,67.14
2019-03-08T23:16:24.745Z,67.12
2019-03-08T23:18:56.416Z,67.35
2019-03-08T23:21:28.022Z,67.18
2019-03-08T23:23:59.622Z,67.51
2019-03-08T23:26:35.278Z,67.73
2019-03-08T23:29:13.872Z,68.03
2019-03-08T23:32:02.011Z,68.24
2019-03-08T23:34:33.967Z,68.16
2019-03-08T23:37:05.568Z,68.53
2019-03-08T23:39:37.227Z,68.42
2019-03-08T23:42:08.857Z,68.62
2019-03-08T23:44:41.506Z,68.52
2019-03-08T23:47:13.195Z,68.85
2019-03-08T23:49:45.040Z,69.07
2019-03-08T23:52:17.006Z,69.10
2019-03-08T23:54:48.597Z,69.20
2019-03-08T23:57:20.264Z,69.37
2019-03-08T23:59:51.938Z,69.90
